Latest Weather Observations for Dubbo

IDN60801

Issued at 10:12 am EST Monday 16 September 2019 (issued every 10 minutes, with the page automatically refreshed every 10 minutes)

About weather observations | Map of weather stations | Latest weather observations for NSW | Other Formats
Station Details ID: 065070 Name: DUBBO AIRPORT AWS Lat: -32.22 Lon: 148.58 Height: 284.0 m
Data from the previous 72 hours. | See also: Recent months at Dubbo
Date/Time
EST
Temp
°C
App
Temp
°C
Dew
Point
°C
Rel
Hum
%
Delta-T
°C
Wind Press
QNH
hPa
Press
MSL
hPa
Rain since
9am
mm
Dir  Spd
km/h
Gust
km/h
Spd
kts
Gust
kts
16/10:00am 24.5 18.5 -11.9 8 13.5 NW 15 24 8 13 1018.6 1018.4 0.0
16/09:30am 21.1 16.1 -13.0 9 11.9 WNW 9 15 5 8 1019.0 1018.9 0.0
16/09:00am 18.7 15.1 -12.3 11 10.7 NE 2 7 1 4 1019.2 1019.1 0.0
16/08:30am 17.5 13.5 -12.2 12 10.1 E 4 9 2 5 1019.4 1019.3 0.0
16/08:00am 14.4 9.5 -11.9 15 8.6 ESE 9 11 5 6 1019.4 1019.3 0.0
16/07:30am 12.5 7.7 -10.5 19 7.6 SE 9 13 5 7 1019.2 1019.1 0.0
16/07:00am 8.3 2.8 -10.0 26 5.7 SE 13 15 7 8 1019.2 1019.1 0.0
16/06:30am 6.7 0.8 -10.5 28 5.2 SE 15 19 8 10 1019.1 1019.0 0.0
16/06:00am 3.8 0.3 -11.0 33 4.5 SSE 2 7 1 4 1019.2 1019.1 0.0
16/05:30am 3.8 -1.0 -11.0 33 4.5 SE 9 13 5 7 1019.0 1018.9 0.0
16/05:00am 5.4 -0.2 -11.6 28 4.9 SE 13 17 7 9 1019.1 1019.0 0.0
16/04:30am 5.7 0.0 -11.8 27 5.1 SE 13 17 7 9 1019.1 1019.0 0.0
16/04:00am 6.5 0.5 -11.6 26 5.3 SE 15 17 8 9 1019.1 1019.0 0.0
16/03:30am 6.5 1.3 -11.1 27 5.3 SE 11 13 6 7 1019.2 1019.1 0.0
16/03:00am 5.6 0.7 -12.4 26 5.1 ESE 9 9 5 5 1019.2 1019.1 0.0
16/02:30am 7.4 2.6 -10.3 27 5.5 E 9 11 5 6 1019.4 1019.3 0.0
16/02:00am 6.4 1.7 -8.7 33 4.8 E 9 11 5 6 1019.8 1019.6 0.0
16/01:30am 7.0 2.6 -10.2 28 5.3 ESE 7 9 4 5 1020.1 1019.9 0.0
16/01:00am 7.9 4.9 -9.9 27 5.6 CALM 0 0 0 0 1020.3 1020.1 0.0
16/12:30am 9.5 6.1 -10.0 24 6.3 ENE 2 6 1 3 1020.3 1020.1 0.0
16/12:00am 9.8 5.4 -9.8 24 6.3 ENE 7 9 4 5 1020.4 1020.2 0.0
 
Date/Time
EST
Temp
°C
App
Temp
°C
Dew
Point
°C
Rel
Hum
%
Delta-T
°C
Wind Press
QNH
hPa
Press
MSL
hPa
Rain since
9am
mm
Dir  Spd
km/h
Gust
km/h
Spd
kts
Gust
kts
15/11:30pm 10.7 7.6 -10.7 21 6.9 CALM 0 0 0 0 1020.5 1020.3 0.0
15/11:00pm 12.5 9.3 -11.9 17 7.8 CALM 0 6 0 3 1020.8 1020.6 0.0
15/10:30pm 13.0 9.0 -12.2 16 8.1 ENE 4 6 2 3 1021.0 1020.8 0.0
15/10:00pm 13.7 10.5 -11.6 16 8.3 CALM 0 0 0 0 1021.1 1020.9 0.0
15/09:30pm 13.8 10.2 -12.3 15 8.4 NNE 2 7 1 4 1021.2 1021.0 0.0
15/09:00pm 15.0 11.7 -14.1 12 9.2 CALM 0 0 0 0 1021.4 1021.2 0.0
15/08:30pm 15.0 11.6 -15.2 11 9.3 CALM 0 0 0 0 1021.5 1021.3 0.0
15/08:00pm 18.6 15.2 -14.8 9 10.9 CALM 0 0 0 0 1021.4 1021.2 0.0
15/07:30pm 17.7 14.0 -14.3 10 10.5 WNW 2 6 1 3 1021.3 1021.1 0.0
15/07:00pm 20.3 15.6 -15.0 8 11.7 WSW 7 9 4 5 1021.1 1020.9 0.0
15/06:30pm 21.0 16.3 -14.5 8 12.1 W 7 9 4 5 1020.9 1020.7 0.0
15/06:00pm 22.0 16.9 -15.3 7 12.6 WNW 9 11 5 6 1020.8 1020.6 0.0
15/05:30pm 25.1 18.9 -15.0 6 14.2 WNW 15 19 8 10 1020.5 1020.3 0.0
15/05:00pm 25.9 19.7 -14.4 6 14.5 NW 15 24 8 13 1020.4 1020.2 0.0
15/04:30pm 26.6 20.3 -16.1 5 15.1 W 15 22 8 12 1020.4 1020.2 0.0
15/04:00pm 26.9 21.0 -15.9 5 15.2 WNW 13 26 7 14 1020.3 1020.1 0.0
15/03:30pm 26.9 19.9 -15.9 5 15.2 WNW 19 32 10 17 1020.4 1020.2 0.0
15/03:00pm 26.6 20.8 -13.9 6 14.8 NW 13 20 7 11 1020.7 1020.5 0.0
15/02:30pm 26.7 21.4 -11.9 7 14.7 NW 11 19 6 10 1021.0 1020.8 0.0
15/02:00pm 26.5 20.4 -12.1 7 14.6 W 15 26 8 14 1021.4 1021.2 0.0
15/01:30pm 26.5 21.0 -16.1 5 15.0 W 11 19 6 10 1021.8 1021.6 0.0
15/01:00pm 25.7 20.9 -16.7 5 14.6 SW 7 13 4 7 1022.2 1022.1 0.0
15/12:30pm 25.3 20.5 -17.0 5 14.5 ESE 7 15 4 8 1022.8 1022.7 0.0
15/12:00pm 24.3 19.6 -15.5 6 13.8 SSW 7 11 4 6 1023.2 1023.1 0.0
15/11:30am 24.3 19.3 -13.7 7 13.6 SSE 9 17 5 9 1023.7 1023.5 0.0
15/11:00am 23.0 17.3 -13.0 8 12.8 SE 13 17 7 9 1024.0 1023.8 0.0
15/10:30am 21.2 16.1 -5.6 16 10.9 SE 13 19 7 10 1024.3 1024.1 0.0
15/10:00am 19.4 14.3 -4.8 19 9.7 SE 13 17 7 9 1024.7 1024.5 0.0
15/09:30am 17.8 12.9 -3.6 23 8.7 SE 13 19 7 10 1025.1 1025.0 0.0
15/09:00am 15.2 10.5 -4.7 25 7.7 SE 11 15 6 8 1025.4 1025.3 0.0
15/08:30am 13.3 8.2 -5.3 27 7.0 ESE 13 15 7 8 1025.4 1025.3 0.0
15/08:00am 11.0 5.9 -5.5 31 6.0 SE 13 17 7 9 1025.4 1025.3 0.0
15/07:30am 8.6 3.8 -5.6 36 5.0 SE 11 13 6 7 1025.0 1024.9 0.0
15/07:00am 6.2 2.0 -4.3 47 3.7 ESE 9 11 5 6 1024.8 1024.6 0.0
15/06:30am 2.9 -1.5 -5.7 53 2.8 ESE 9 11 5 6 1024.5 1024.3 0.0
15/06:00am 3.4 -1.1 -6.8 47 3.2 SSE 9 11 5 6 1024.4 1024.2 0.0
15/05:30am 5.0 1.1 -6.2 44 3.7 SSE 6 9 3 5 1024.3 1024.1 0.0
15/05:00am 5.1 0.8 -5.3 47 3.5 SE 9 11 5 6 1023.9 1023.7 0.0
15/04:30am 4.0 -0.3 -4.9 52 3.0 ESE 9 11 5 6 1023.4 1023.2 0.0
15/04:00am 3.8 -0.2 -5.6 50 3.1 ESE 7 9 4 5 1023.2 1023.1 0.0
15/03:30am 4.1 0.1 -5.6 49 3.2 ESE 7 9 4 5 1023.1 1023.0 0.0
15/03:00am 4.6 0.9 -4.1 53 3.0 SE 6 9 3 5 1023.2 1023.1 0.0
15/02:30am 6.0 3.4 -5.0 45 3.8 CALM 0 0 0 0 1023.4 1023.2 0.0
15/02:00am 6.2 2.4 -5.7 42 4.0 SE 6 9 3 5 1023.7 1023.5 0.0
15/01:30am 6.2 2.2 -5.4 43 4.0 ESE 7 11 4 6 1024.1 1023.9 0.0
15/01:00am 7.2 3.3 -5.1 41 4.3 SSE 7 11 4 6 1024.2 1024.0 0.0
15/12:30am 9.0 5.6 -4.9 37 5.0 S 4 7 2 4 1024.2 1024.0 0.0
15/12:00am 9.1 4.7 -5.9 34 5.2 SE 9 11 5 6 1024.3 1024.1 0.0
 
Date/Time
EST
Temp
°C
App
Temp
°C
Dew
Point
°C
Rel
Hum
%
Delta-T
°C
Wind Press
QNH
hPa
Press
MSL
hPa
Rain since
9am
mm
Dir  Spd
km/h
Gust
km/h
Spd
kts
Gust
kts
14/11:30pm 10.1 6.1 -7.1 29 6.0 S 6 7 3 4 1024.4 1024.2 0.0
14/11:00pm 13.7 10.6 -5.9 25 7.2 S 2 7 1 4 1024.4 1024.2 0.0
14/10:30pm 12.9 9.3 -7.7 23 7.3 S 4 7 2 4 1024.4 1024.2 0.0
14/10:00pm 14.5 9.7 -6.4 23 7.7 S 11 13 6 7 1024.5 1024.3 0.0
14/09:30pm 14.5 9.3 -6.4 23 7.8 SSW 13 17 7 9 1024.5 1024.3 0.0
14/09:00pm 14.1 9.0 -5.6 25 7.4 SSW 13 15 7 8 1024.3 1024.1 0.0
14/08:30pm 15.0 9.9 -5.4 24 7.8 SSW 13 15 7 8 1024.2 1024.0 0.0
14/08:00pm 16.9 11.8 -4.9 22 8.5 SSW 13 17 7 9 1024.0 1023.8 0.0
14/07:30pm 17.3 12.3 -4.6 22 8.7 SSW 13 15 7 8 1023.6 1023.4 0.0
14/07:00pm 17.4 12.3 -5.1 21 8.8 SW 13 15 7 8 1023.2 1023.1 0.0
14/06:30pm 17.6 12.0 -6.3 19 9.2 SW 15 17 8 9 1023.0 1022.9 0.0
14/06:00pm 19.5 13.9 -6.2 17 10.1 SW 15 17 8 9 1022.8 1022.7 0.0
14/05:30pm 22.5 16.1 -7.3 13 11.8 SSW 19 26 10 14 1022.6 1022.5 0.0
14/05:00pm 23.7 16.3 -7.4 12 12.4 SW 24 30 13 16 1022.4 1022.3 0.0
14/04:30pm 24.4 17.7 -7.9 11 12.9 SSW 20 28 11 15 1022.2 1022.1 0.0
14/04:00pm 25.2 19.6 -6.2 12 13.0 SW 15 26 8 14 1022.1 1022.0 0.0
14/03:30pm 24.8 18.3 -5.5 13 12.7 SW 20 32 11 17 1022.2 1022.1 0.0
14/03:00pm 24.9 18.6 -5.4 13 12.7 SW 19 32 10 17 1022.2 1022.1 0.0
14/02:30pm 25.1 19.1 -3.3 15 12.5 SW 19 28 10 15 1022.3 1022.2 0.0
14/02:00pm 25.5 19.2 -3.9 14 12.8 SSW 20 37 11 20 1022.4 1022.3 0.0
14/01:30pm 24.6 18.5 -2.0 17 11.9 SW 20 32 11 17 1022.7 1022.6 0.0
14/01:00pm 24.9 19.5 -1.0 18 11.8 WSW 17 30 9 16 1023.1 1023.0 0.0
14/12:30pm 24.2 19.5 1.2 22 10.9 WSW 15 32 8 17 1023.6 1023.4 0.0
14/12:00pm 24.4 18.6 -1.4 18 11.6 S 19 26 10 14 1024.2 1024.0 0.0
14/11:30am 22.9 18.2 0.7 23 10.3 SW 15 24 8 13 1024.4 1024.2 0.0
14/11:00am 21.8 17.1 0.9 25 9.6 S 15 24 8 13 1024.7 1024.5 0.0
14/10:30am 21.4 16.1 1.7 27 9.2 SSE 19 28 10 15 1024.9 1024.7 0.0
14/10:00am 19.6 16.1 1.1 29 8.4 SE 9 20 5 11 1025.3 1025.2 0.0
14/09:30am 18.4 13.6 0.5 30 8.0 SSE 15 20 8 11 1025.4 1025.3 0.0
14/09:00am 17.1 11.8 -0.6 30 7.6 SSE 17 24 9 13 1025.5 1025.4 0.0
14/08:30am 15.4 10.8 -1.2 32 7.0 SE 13 17 7 9 1025.4 1025.3 0.0
14/08:00am 13.0 8.9 -3.3 32 6.3 SE 9 11 5 6 1025.3 1025.2 0.0
14/07:30am 9.8 6.4 -5.3 34 5.4 ENE 4 9 2 5 1024.9 1024.7 0.0
14/07:00am 6.8 3.8 -5.5 41 4.2 E 2 6 1 3 1024.6 1024.4 0.0
14/06:30am 4.5 1.8 -5.8 47 3.4 CALM 0 0 0 0 1024.3 1024.1 0.0
14/06:00am 5.5 2.9 -5.2 46 3.6 CALM 0 0 0 0 1023.9 1023.7 0.0
14/05:30am 5.2 2.6 -5.2 47 3.5 CALM 0 0 0 0 1023.9 1023.7 0.0
14/05:00am 4.0 1.3 -6.3 47 3.3 CALM 0 0 0 0 1023.5 1023.3 0.0
14/04:30am 5.3 1.8 -5.9 44 3.7 E 4 7 2 4 1023.2 1023.1 0.0
14/04:00am 8.6 5.0 -3.3 43 4.4 SSE 6 7 3 4 1023.1 1023.0 0.0
14/03:30am 7.0 4.4 -5.0 42 4.2 CALM 0 0 0 0 1023.1 1023.0 0.0
14/03:00am 7.1 4.0 -5.9 39 4.4 SSE 2 7 1 4 1023.1 1023.0 0.0
14/02:30am 7.6 4.1 -6.5 36 4.8 NE 4 9 2 5 1023.1 1023.0 0.0
14/02:00am 7.9 4.1 -5.9 37 4.8 NE 6 7 3 4 1023.2 1023.1 0.0
14/01:30am 8.3 4.8 -6.6 34 5.1 S 4 9 2 5 1023.5 1023.3 0.0
14/01:00am 12.9 8.2 -4.7 29 6.6 S 11 13 6 7 1023.6 1023.4 0.0
14/12:30am 13.8 8.7 -4.8 27 7.1 SSW 13 15 7 8 1023.6 1023.4 0.0
14/12:00am 14.1 9.0 -5.1 26 7.3 SSW 13 15 7 8 1023.8 1023.6 0.0
 
Date/Time
EST
Temp
°C
App
Temp
°C
Dew
Point
°C
Rel
Hum
%
Delta-T
°C
Wind Press
QNH
hPa
Press
MSL
hPa
Rain since
9am
mm
Dir  Spd
km/h
Gust
km/h
Spd
kts
Gust
kts
13/11:30pm 14.4 9.0 -4.8 26 7.4 SSW 15 17 8 9 1023.8 1023.6 0.0
13/11:00pm 12.9 8.5 -5.6 27 6.8 SSW 9 13 5 7 1023.7 1023.5 0.0
13/10:30pm 13.2 9.2 -5.4 27 7.0 S 7 9 4 5 1023.6 1023.4 0.0
13/10:00pm 13.6 10.9 -5.5 26 7.2 CALM 0 6 0 3 1023.6 1023.4 0.0
13/09:30pm 12.9 10.1 -7.2 24 7.2 CALM 0 0 0 0 1023.5 1023.3 0.0
13/09:00pm 15.4 11.3 -6.8 21 8.3 SSE 7 7 4 4 1023.4 1023.2 0.0
13/08:30pm 16.0 11.1 -6.9 20 8.6 S 11 15 6 8 1023.5 1023.3 0.0
13/08:00pm 17.3 11.6 -7.2 18 9.2 SSW 15 20 8 11 1023.2 1023.1 0.0
13/07:30pm 19.4 13.4 -7.0 16 10.2 SSW 17 22 9 12 1023.1 1023.0 0.0
13/07:00pm 18.6 12.8 -8.5 15 10.1 SW 15 17 8 9 1023.0 1022.9 0.0
13/06:30pm 18.3 12.8 -9.6 14 10.1 SW 13 15 7 8 1022.5 1022.4 0.0
13/06:00pm 19.8 13.5 -10.4 12 11.0 SW 17 22 9 12 1022.1 1022.0 0.0
13/05:30pm 22.9 16.0 -10.3 10 12.5 SW 20 26 11 14 1021.4 1021.2 0.0
13/05:00pm 24.2 18.3 -9.3 10 13.0 SW 15 22 8 12 1021.0 1020.8 0.0
13/04:30pm 25.1 18.3 -11.4 8 13.8 WSW 19 26 10 14 1021.2 1021.0 0.0
13/04:00pm 25.2 19.0 -8.5 10 13.4 SSW 17 26 9 14 1021.1 1020.9 0.0
13/03:30pm 25.5 18.2 -11.1 8 14.0 WSW 22 33 12 18 1021.1 1020.9 0.0
13/03:00pm 25.6 18.8 -9.6 9 13.8 WSW 20 32 11 17 1021.2 1021.0 0.0
13/02:30pm 25.1 19.0 -7.4 11 13.2 W 17 24 9 13 1021.2 1021.0 0.0
13/02:00pm 25.2 19.0 -8.5 10 13.4 W 17 28 9 15 1021.4 1021.2 0.0
13/01:30pm 25.7 20.6 -9.5 9 13.9 SW 11 22 6 12 1021.7 1021.5 0.0
13/01:00pm 24.5 19.5 -7.9 11 13.0 SSE 11 17 6 9 1022.0 1021.9 0.0
13/12:30pm 23.6 18.6 -8.5 11 12.6 SSW 11 19 6 10 1022.5 1022.4 0.0
13/12:00pm 23.8 20.0 -5.3 14 12.2 WNW 6 9 3 5 1023.1 1023.0 0.0
13/11:30am 22.9 17.9 -4.2 16 11.5 SE 13 20 7 11 1023.5 1023.3 0.0
13/11:00am 21.8 16.6 -2.8 19 10.6 SE 15 22 8 12 1024.0 1023.8 0.0
13/10:30am 20.5 15.9 -1.3 23 9.6 SE 13 22 7 12 1024.6 1024.4 0.0

Other formats

Comma delimited format used in spreadsheet applications
http://www.bom.gov.au/fwo/IDN60801/IDN60801.95719.axf

JavaScript Object Notation format (JSON) in row-major order
http://www.bom.gov.au/fwo/IDN60801/IDN60801.95719.json

Data quality

Most of these data are generated automatically and are frequently updated. Quality checks on data are not normally performed. It is possible for incorrect values to appear. Refer to information at About Latest Weather Observations and please check the disclaimer before using these data.